Harrisonville, New Jersey
Current Conditions -  °F | °C
As of 6:10 PM on Wednesday 26 Nov 2014 (Local Time) from KPHL Reporting Station
Light Snow Light Snow  
Wind Chill: 26°   Ceiling: 900
Heat Index: 36°   Visibility: 4mi
Dew Point: 32°   Wind: 16mph
Humidity: 86%   Direction: 330°NNW
Pressure: 29.87"   Gusts: NA
Location:  39.68°N, 75.25°W
Report Text: KPHL 262310Z 33014KT 4SM -RASN BR BKN009 BKN019 OVC025 02/00 A2987 RMK AO2 PLE09SNB09 P0001 T00220000 $
Loading
Personal Weather Stations






























Interactive Weather Map New forecast layout! Learn more

10-Day Weather Forecast

Advertisements
Track Severe Weather on mobile